createdAt,value
2022-08-28T00:00:32.424Z,2.83
2022-08-28T00:03:00.754Z,3.10
2022-08-28T00:05:32.250Z,3.10
2022-08-28T00:08:01.189Z,3.40
2022-08-28T00:10:30.260Z,2.93
2022-08-28T00:13:00.424Z,3.40
2022-08-28T00:15:31.544Z,3.07
2022-08-28T00:18:00.729Z,2.80
2022-08-28T00:20:31.130Z,3.53
2022-08-28T00:23:00.300Z,3.33
2022-08-28T00:25:30.530Z,3.40
2022-08-28T00:27:59.931Z,4.10
2022-08-28T00:30:31.228Z,2.80
2022-08-28T00:33:02.373Z,3.40
2022-08-28T00:35:31.688Z,3.50
2022-08-28T00:38:00.092Z,3.90
2022-08-28T00:40:33.039Z,3.83
2022-08-28T00:43:03.503Z,5.20
2022-08-28T00:45:38.724Z,4.10
2022-08-28T00:48:08.522Z,4.00
2022-08-28T00:50:52.066Z,4.00
2022-08-28T00:53:21.068Z,3.60
2022-08-28T00:55:51.534Z,3.53
2022-08-28T00:58:20.148Z,4.03
2022-08-28T01:00:48.110Z,3.47
2022-08-28T01:03:16.002Z,4.00
2022-08-28T01:05:47.893Z,4.80
2022-08-28T01:08:16.163Z,3.57
2022-08-28T01:10:51.145Z,4.00
2022-08-28T01:13:19.705Z,3.80
2022-08-28T01:15:49.389Z,4.60
2022-08-28T01:18:18.611Z,3.70
2022-08-28T01:20:56.945Z,4.30
2022-08-28T01:23:42.945Z,4.23
2022-08-28T01:26:11.912Z,4.20
2022-08-28T01:28:41.428Z,4.07
2022-08-28T01:31:10.696Z,3.87
2022-08-28T01:33:42.305Z,4.17
2022-08-28T01:36:12.350Z,4.73
2022-08-28T01:38:44.237Z,3.73
2022-08-28T01:41:13.833Z,3.97
2022-08-28T01:43:43.205Z,4.80
2022-08-28T01:46:12.515Z,4.43
2022-08-28T01:48:43.167Z,4.40
2022-08-28T01:51:12.146Z,4.70
2022-08-28T01:53:49.687Z,4.90
2022-08-28T01:56:18.811Z,4.60
2022-08-28T01:58:48.447Z,4.30
2022-08-28T02:01:18.885Z,4.53
2022-08-28T02:03:47.275Z,4.23
2022-08-28T02:06:16.272Z,5.00
2022-08-28T02:08:45.850Z,5.03
2022-08-28T02:11:15.444Z,4.67
2022-08-28T02:13:43.740Z,3.97
2022-08-28T02:16:12.047Z,4.70
2022-08-28T02:18:40.101Z,4.63
2022-08-28T02:21:09.710Z,5.27
2022-08-28T02:23:39.733Z,5.30
2022-08-28T02:26:10.292Z,4.30
2022-08-28T02:28:38.474Z,4.97
2022-08-28T02:31:09.167Z,4.53
2022-08-28T02:33:38.251Z,4.70
2022-08-28T02:36:08.839Z,5.60
2022-08-28T02:38:36.901Z,5.37
2022-08-28T02:41:04.938Z,4.87
2022-08-28T02:43:34.743Z,5.00
2022-08-28T02:46:04.597Z,5.30
2022-08-28T02:48:34.179Z,5.17
2022-08-28T02:51:04.226Z,4.90
2022-08-28T02:53:32.988Z,5.37
2022-08-28T02:56:02.904Z,4.70
2022-08-28T02:58:33.160Z,4.73
2022-08-28T03:01:03.636Z,4.50
2022-08-28T03:03:32.539Z,4.43
2022-08-28T03:06:00.766Z,5.00
2022-08-28T03:08:30.052Z,4.93
2022-08-28T03:10:57.904Z,4.93
2022-08-28T03:13:33.222Z,4.70
2022-08-28T03:16:04.649Z,5.10
2022-08-28T03:18:33.465Z,5.13
2022-08-28T03:21:02.012Z,5.00
2022-08-28T03:23:29.111Z,4.27
2022-08-28T03:25:59.742Z,4.70
2022-08-28T03:28:29.654Z,5.63
2022-08-28T03:30:57.879Z,5.23
2022-08-28T03:33:27.787Z,4.77
2022-08-28T03:35:56.226Z,5.40
2022-08-28T03:38:25.348Z,4.53
2022-08-28T03:40:54.280Z,5.10
2022-08-28T03:43:24.317Z,4.60
2022-08-28T03:45:55.079Z,5.10
2022-08-28T03:48:24.321Z,4.93
2022-08-28T03:50:55.564Z,4.83
2022-08-28T03:53:24.973Z,4.40
2022-08-28T03:55:53.143Z,5.43
2022-08-28T03:58:22.220Z,4.97
2022-08-28T04:00:51.042Z,5.23
2022-08-28T04:03:19.393Z,4.40
2022-08-28T04:05:48.260Z,5.50
2022-08-28T04:08:22.967Z,4.70
2022-08-28T04:10:51.415Z,4.10
2022-08-28T04:13:21.032Z,4.80
2022-08-28T04:15:58.443Z,6.13
2022-08-28T04:18:26.777Z,4.90
2022-08-28T04:21:02.815Z,4.90
2022-08-28T04:23:32.084Z,4.20
2022-08-28T04:26:01.402Z,5.47
2022-08-28T04:28:29.285Z,4.77
2022-08-28T04:30:57.119Z,4.70
2022-08-28T04:33:27.170Z,4.87
2022-08-28T04:35:55.255Z,4.97
2022-08-28T04:38:23.478Z,4.43
2022-08-28T04:40:52.749Z,4.77
2022-08-28T04:43:21.636Z,5.00
2022-08-28T04:45:49.619Z,4.90
2022-08-28T04:48:17.819Z,5.17
2022-08-28T04:50:48.077Z,5.80
2022-08-28T04:53:17.534Z,4.30
2022-08-28T04:55:54.503Z,4.70
2022-08-28T04:58:24.611Z,5.70
2022-08-28T05:00:53.985Z,4.50
2022-08-28T05:03:22.214Z,5.43
2022-08-28T05:05:52.877Z,4.30
2022-08-28T05:08:22.756Z,3.93
2022-08-28T05:10:53.251Z,4.90
2022-08-28T05:13:21.690Z,5.30
2022-08-28T05:15:53.060Z,5.47
2022-08-28T05:18:24.209Z,4.93
2022-08-28T05:20:52.075Z,4.20
2022-08-28T05:23:19.937Z,4.73
2022-08-28T05:25:52.138Z,4.90
2022-08-28T05:28:22.167Z,4.33
2022-08-28T05:30:54.536Z,4.73
2022-08-28T05:33:22.568Z,5.23
2022-08-28T05:35:50.507Z,4.00
2022-08-28T05:38:18.515Z,4.67
2022-08-28T05:40:49.508Z,5.30
2022-08-28T05:43:19.460Z,5.00
2022-08-28T05:45:47.449Z,4.87
2022-08-28T05:48:16.704Z,4.40
2022-08-28T05:50:47.312Z,5.47
2022-08-28T05:53:17.505Z,4.80
2022-08-28T05:55:46.588Z,5.07
2022-08-28T05:58:31.263Z,4.90
2022-08-28T06:01:15.246Z,3.80
2022-08-28T06:03:47.754Z,4.87
2022-08-28T06:06:15.692Z,4.43
2022-08-28T06:08:58.399Z,4.10
2022-08-28T06:11:30.313Z,5.13
2022-08-28T06:14:00.734Z,4.57
2022-08-28T06:16:30.229Z,5.10
2022-08-28T06:19:00.600Z,4.97
2022-08-28T06:21:28.797Z,4.90
2022-08-28T06:23:57.105Z,4.07
2022-08-28T06:26:25.240Z,4.63
2022-08-28T06:28:54.108Z,3.50
2022-08-28T06:31:23.177Z,4.10
2022-08-28T06:33:53.882Z,4.77
2022-08-28T06:36:23.473Z,4.40
2022-08-28T06:38:51.919Z,4.60
2022-08-28T06:41:20.135Z,4.80
2022-08-28T06:43:48.232Z,5.10
2022-08-28T06:46:16.624Z,4.40
2022-08-28T06:48:44.581Z,3.80
2022-08-28T06:51:14.014Z,4.80
2022-08-28T06:53:45.343Z,5.27
2022-08-28T06:56:25.661Z,4.80
2022-08-28T06:58:55.618Z,3.97
2022-08-28T07:01:26.820Z,4.07
2022-08-28T07:03:58.952Z,4.70
2022-08-28T07:06:27.590Z,3.83
2022-08-28T07:08:56.863Z,3.37
2022-08-28T07:11:28.798Z,3.43
2022-08-28T07:13:58.899Z,3.50
2022-08-28T07:16:30.974Z,3.17
2022-08-28T07:18:59.639Z,3.20
2022-08-28T07:21:27.888Z,3.30
2022-08-28T07:23:57.163Z,3.37
2022-08-28T07:26:26.089Z,3.97
2022-08-28T07:29:00.642Z,3.20
2022-08-28T07:31:41.886Z,3.23
2022-08-28T07:34:11.046Z,3.47
2022-08-28T07:36:39.908Z,3.40
2022-08-28T07:39:10.701Z,3.23
2022-08-28T07:41:42.756Z,4.00
2022-08-28T07:44:35.917Z,4.70
2022-08-28T07:47:06.438Z,3.90
2022-08-28T07:49:37.301Z,3.40
2022-08-28T07:52:05.958Z,3.53
2022-08-28T07:54:35.977Z,3.10
2022-08-28T07:57:04.700Z,3.40
2022-08-28T07:59:36.943Z,3.00
2022-08-28T08:02:05.946Z,3.57
2022-08-28T08:04:33.875Z,3.03
2022-08-28T08:07:04.596Z,3.23
2022-08-28T08:09:32.743Z,3.57
2022-08-28T08:12:02.488Z,3.30
2022-08-28T08:14:31.310Z,3.97
2022-08-28T08:17:02.889Z,3.27
2022-08-28T08:19:30.990Z,4.33
2022-08-28T08:21:59.131Z,3.33
2022-08-28T08:24:30.712Z,3.40
2022-08-28T08:27:04.714Z,3.30
2022-08-28T08:29:35.891Z,3.80
2022-08-28T08:32:08.344Z,3.20
2022-08-28T08:34:40.047Z,4.20
2022-08-28T08:37:08.611Z,3.00
2022-08-28T08:39:37.785Z,3.67
2022-08-28T08:42:21.696Z,3.37
2022-08-28T08:44:53.836Z,2.73
2022-08-28T08:47:26.562Z,3.10
2022-08-28T08:49:58.515Z,2.67
2022-08-28T08:52:37.162Z,2.70
2022-08-28T08:55:23.261Z,2.90
2022-08-28T08:58:09.867Z,3.17
2022-08-28T09:00:57.570Z,3.07
2022-08-28T09:03:31.791Z,3.50
2022-08-28T09:06:03.064Z,3.63
2022-08-28T09:08:39.333Z,2.80
2022-08-28T09:11:19.113Z,3.47
2022-08-28T09:13:56.156Z,3.17
2022-08-28T09:16:31.425Z,3.20
2022-08-28T09:19:01.608Z,3.13
2022-08-28T09:21:32.271Z,2.80
2022-08-28T09:24:05.796Z,3.23
2022-08-28T09:26:41.100Z,3.33
2022-08-28T09:29:24.497Z,2.67
2022-08-28T09:31:52.409Z,3.90
2022-08-28T09:34:38.169Z,2.70
2022-08-28T09:37:09.607Z,3.60
2022-08-28T09:39:45.550Z,3.40
2022-08-28T09:42:38.499Z,2.87
2022-08-28T09:45:18.590Z,3.40
2022-08-28T09:47:50.518Z,2.80
2022-08-28T09:50:32.279Z,3.50
2022-08-28T09:53:16.528Z,3.17
2022-08-28T09:55:57.234Z,2.77
2022-08-28T09:58:36.559Z,2.83
2022-08-28T10:01:16.608Z,3.03
2022-08-28T10:03:52.712Z,2.87
2022-08-28T10:06:27.850Z,3.50
2022-08-28T10:09:11.854Z,2.53
2022-08-28T10:11:47.679Z,2.47
2022-08-28T10:14:27.394Z,2.87
2022-08-28T10:17:07.847Z,2.70
2022-08-28T10:19:45.130Z,3.13
2022-08-28T10:22:27.194Z,2.80
2022-08-28T10:25:08.639Z,3.10
2022-08-28T10:27:58.181Z,3.00
2022-08-28T10:30:26.310Z,3.23
2022-08-28T10:33:16.993Z,3.40
2022-08-28T10:35:52.593Z,2.83
2022-08-28T10:38:26.554Z,3.17
2022-08-28T10:41:03.064Z,3.00
2022-08-28T10:43:35.625Z,2.00
2022-08-28T10:46:09.375Z,2.87
2022-08-28T10:48:46.262Z,3.30
2022-08-28T10:51:20.289Z,2.90
2022-08-28T10:54:08.022Z,2.60
2022-08-28T10:56:41.131Z,2.63
2022-08-28T10:59:09.041Z,2.33
2022-08-28T11:01:41.262Z,3.60
2022-08-28T11:04:24.704Z,2.53
2022-08-28T11:06:56.944Z,2.33
2022-08-28T11:09:34.162Z,2.63
2022-08-28T11:12:07.391Z,2.70
2022-08-28T11:14:47.508Z,2.60
2022-08-28T11:17:43.322Z,2.90
2022-08-28T11:20:20.525Z,3.50
2022-08-28T11:22:52.922Z,4.00
2022-08-28T11:25:26.658Z,2.60
2022-08-28T11:28:19.409Z,17.33
2022-08-28T11:30:49.201Z,5.03
2022-08-28T11:33:39.428Z,4.77
2022-08-28T11:36:12.876Z,5.23
2022-08-28T11:39:06.513Z,3.60
2022-08-28T11:41:38.413Z,2.83
2022-08-28T11:44:28.500Z,3.10
2022-08-28T11:47:17.018Z,2.30
2022-08-28T11:49:46.819Z,3.50
2022-08-28T11:52:36.434Z,3.20
2022-08-28T11:55:17.076Z,3.50
2022-08-28T11:57:56.764Z,2.73
2022-08-28T12:00:34.674Z,2.50
2022-08-28T12:03:16.372Z,2.77
2022-08-28T12:05:51.814Z,2.50
2022-08-28T12:09:12.010Z,7.60
2022-08-28T12:12:04.595Z,2.33
2022-08-28T12:15:07.702Z,3.30
2022-08-28T12:17:53.874Z,3.00
2022-08-28T12:20:32.854Z,2.80
2022-08-28T12:23:05.201Z,2.90
2022-08-28T12:25:38.791Z,2.60
2022-08-28T12:28:17.996Z,2.97
2022-08-28T12:30:53.274Z,2.50
2022-08-28T12:33:28.616Z,2.93
2022-08-28T12:36:02.039Z,2.57
2022-08-28T12:38:33.930Z,2.37
2022-08-28T12:41:04.279Z,3.13
2022-08-28T12:43:44.357Z,2.10
2022-08-28T12:46:19.958Z,2.13
2022-08-28T12:48:54.851Z,2.20
2022-08-28T12:51:25.310Z,2.10
2022-08-28T12:53:56.291Z,2.57
2022-08-28T12:56:26.581Z,2.20
2022-08-28T12:58:54.675Z,1.90
2022-08-28T13:01:30.066Z,2.40
2022-08-28T13:04:00.355Z,2.17
2022-08-28T13:06:33.232Z,1.80
2022-08-28T13:09:05.601Z,1.70
2022-08-28T13:11:37.335Z,1.93
2022-08-28T13:14:07.970Z,1.97
2022-08-28T13:16:40.557Z,1.87
2022-08-28T13:19:21.710Z,1.60
2022-08-28T13:22:00.982Z,2.20
2022-08-28T13:24:59.336Z,1.90
2022-08-28T13:27:28.194Z,2.23
2022-08-28T13:30:04.040Z,2.03
2022-08-28T13:32:36.744Z,2.20
2022-08-28T13:35:16.742Z,2.00
2022-08-28T13:37:47.784Z,1.70
2022-08-28T13:40:53.482Z,2.00
2022-08-28T13:43:11.409Z,1.70
2022-08-28T13:45:43.799Z,1.73
2022-08-28T13:48:13.280Z,2.60
2022-08-28T13:50:44.822Z,1.80
2022-08-28T13:53:15.811Z,2.97
2022-08-28T13:55:45.610Z,2.53
2022-08-28T13:58:13.775Z,2.53
2022-08-28T14:00:45.957Z,2.30
2022-08-28T14:03:31.430Z,2.20
2022-08-28T14:05:59.364Z,2.10
2022-08-28T14:08:34.579Z,2.13
2022-08-28T14:11:04.295Z,1.90
2022-08-28T14:13:32.673Z,2.50
2022-08-28T14:16:00.624Z,1.93
2022-08-28T14:18:31.758Z,2.30
2022-08-28T14:21:00.252Z,1.90
2022-08-28T14:23:29.352Z,1.77
2022-08-28T14:25:58.524Z,1.77
2022-08-28T14:28:27.839Z,2.30
2022-08-28T14:30:55.726Z,1.70
2022-08-28T14:33:23.637Z,2.07
2022-08-28T14:35:51.581Z,1.77
2022-08-28T14:38:26.835Z,2.13
2022-08-28T14:40:55.192Z,1.80
2022-08-28T14:43:24.074Z,1.40
2022-08-28T14:45:53.461Z,1.80
2022-08-28T14:48:21.473Z,1.37
2022-08-28T14:50:49.954Z,1.50
2022-08-28T14:53:18.255Z,1.70
2022-08-28T14:55:48.222Z,1.97
2022-08-28T14:58:17.196Z,1.83
2022-08-28T15:00:46.730Z,1.80
2022-08-28T15:03:16.692Z,1.80
2022-08-28T15:05:45.367Z,1.50
2022-08-28T15:08:16.347Z,1.60
2022-08-28T15:10:45.132Z,2.10
2022-08-28T15:13:13.559Z,1.90
2022-08-28T15:15:43.287Z,1.90
2022-08-28T15:18:12.398Z,1.50
2022-08-28T15:20:43.611Z,1.70
2022-08-28T15:23:12.954Z,1.30
2022-08-28T15:25:41.687Z,1.73
2022-08-28T15:28:10.573Z,1.70
2022-08-28T15:30:39.077Z,2.57
2022-08-28T15:33:07.674Z,4.50
2022-08-28T15:35:37.038Z,2.07
2022-08-28T15:38:07.384Z,1.93
2022-08-28T15:40:53.358Z,1.40
2022-08-28T15:43:21.291Z,1.77
2022-08-28T15:45:49.930Z,2.20
2022-08-28T15:48:20.399Z,1.80
2022-08-28T15:50:48.306Z,1.63
2022-08-28T15:53:20.105Z,2.60
2022-08-28T15:55:48.030Z,1.47
2022-08-28T15:58:15.939Z,1.73
2022-08-28T16:00:44.026Z,1.83
2022-08-28T16:03:12.349Z,2.07
2022-08-28T16:05:40.712Z,2.07
2022-08-28T16:08:10.625Z,1.60
2022-08-28T16:10:41.633Z,1.70
2022-08-28T16:13:09.561Z,2.13
2022-08-28T16:15:37.538Z,1.90
2022-08-28T16:18:08.823Z,2.27
2022-08-28T16:20:37.178Z,2.07
2022-08-28T16:23:05.122Z,1.90
2022-08-28T16:25:35.887Z,2.17
2022-08-28T16:28:10.672Z,1.47
2022-08-28T16:30:43.891Z,1.87
2022-08-28T16:33:12.949Z,2.07
2022-08-28T16:35:49.486Z,1.60
2022-08-28T16:38:23.207Z,1.67
2022-08-28T16:40:51.117Z,2.30
2022-08-28T16:43:20.547Z,2.13
2022-08-28T16:45:48.578Z,2.03
2022-08-28T16:48:16.735Z,1.90
2022-08-28T16:50:46.027Z,1.93
2022-08-28T16:53:14.605Z,3.13
2022-08-28T16:55:48.009Z,2.90
2022-08-28T16:58:17.171Z,1.80
2022-08-28T17:00:52.673Z,3.60
2022-08-28T17:03:26.368Z,2.57
2022-08-28T17:06:10.962Z,2.50
2022-08-28T17:08:39.236Z,2.20
2022-08-28T17:11:07.512Z,2.07
2022-08-28T17:13:36.242Z,3.03
2022-08-28T17:16:06.243Z,2.23
2022-08-28T17:18:34.359Z,1.80
2022-08-28T17:21:19.583Z,2.50
2022-08-28T17:23:47.790Z,2.43
2022-08-28T17:26:15.957Z,2.30
2022-08-28T17:28:44.481Z,2.30
2022-08-28T17:31:14.443Z,2.43
2022-08-28T17:33:44.266Z,3.07
2022-08-28T17:36:32.481Z,2.23
2022-08-28T17:39:03.529Z,2.47
2022-08-28T17:41:31.528Z,1.70
2022-08-28T17:43:59.471Z,2.00
2022-08-28T17:46:30.213Z,2.60
2022-08-28T17:49:00.841Z,2.30
2022-08-28T17:51:42.589Z,2.70
2022-08-28T17:54:13.489Z,2.00
2022-08-28T17:56:41.721Z,2.53
2022-08-28T17:59:10.024Z,1.87
2022-08-28T18:01:39.566Z,2.43
2022-08-28T18:04:07.613Z,2.40
2022-08-28T18:06:35.921Z,2.40
2022-08-28T18:09:03.998Z,2.50
2022-08-28T18:11:31.933Z,2.50
2022-08-28T18:14:00.729Z,1.87
2022-08-28T18:16:31.504Z,2.30
2022-08-28T18:19:01.792Z,2.83
2022-08-28T18:21:30.352Z,1.90
2022-08-28T18:24:00.941Z,2.50
2022-08-28T18:26:29.011Z,1.87
2022-08-28T18:28:57.264Z,2.30
2022-08-28T18:31:25.215Z,2.00
2022-08-28T18:33:54.247Z,2.43
2022-08-28T18:36:24.141Z,2.20
2022-08-28T18:38:52.722Z,2.60
2022-08-28T18:41:21.711Z,1.57
2022-08-28T18:43:57.370Z,2.43
2022-08-28T18:46:26.723Z,3.60
2022-08-28T18:48:56.698Z,3.57
2022-08-28T18:51:26.710Z,3.37
2022-08-28T18:53:55.290Z,2.27
2022-08-28T18:56:23.259Z,2.57
2022-08-28T18:58:56.199Z,2.87
2022-08-28T19:01:24.274Z,2.20
2022-08-28T19:03:52.281Z,2.47
2022-08-28T19:06:20.222Z,1.93
2022-08-28T19:08:53.184Z,2.67
2022-08-28T19:11:21.296Z,2.23
2022-08-28T19:13:49.317Z,2.13
2022-08-28T19:16:18.459Z,3.17
2022-08-28T19:18:47.842Z,2.70
2022-08-28T19:21:19.618Z,3.83
2022-08-28T19:23:55.885Z,3.87
2022-08-28T19:26:25.578Z,3.03
2022-08-28T19:28:53.515Z,2.43
2022-08-28T19:31:21.707Z,2.70
2022-08-28T19:33:49.745Z,2.80
2022-08-28T19:36:18.536Z,2.70
2022-08-28T19:38:46.769Z,2.07
2022-08-28T19:41:18.038Z,2.37
2022-08-28T19:43:45.937Z,2.00
2022-08-28T19:46:19.377Z,2.30
2022-08-28T19:48:48.680Z,3.03
2022-08-28T19:51:22.184Z,2.63
2022-08-28T19:53:57.206Z,3.03
2022-08-28T19:56:28.656Z,3.00
2022-08-28T19:58:58.360Z,2.50
2022-08-28T20:01:26.378Z,2.90
2022-08-28T20:03:54.348Z,2.60
2022-08-28T20:06:22.255Z,2.60
2022-08-28T20:08:50.427Z,2.40
2022-08-28T20:11:24.539Z,2.50
2022-08-28T20:13:55.522Z,2.40
2022-08-28T20:16:23.661Z,2.43
2022-08-28T20:18:51.665Z,2.40
2022-08-28T20:21:25.882Z,2.30
2022-08-28T20:24:06.133Z,2.30
2022-08-28T20:26:34.171Z,2.47
2022-08-28T20:29:03.586Z,2.20
2022-08-28T20:31:31.506Z,1.90
2022-08-28T20:33:59.581Z,2.00
2022-08-28T20:36:27.693Z,2.27
2022-08-28T20:38:55.869Z,2.20
2022-08-28T20:41:25.276Z,2.07
2022-08-28T20:43:53.386Z,2.67
2022-08-28T20:46:23.089Z,2.10
2022-08-28T20:48:50.993Z,1.67
2022-08-28T20:51:39.367Z,1.93
2022-08-28T20:54:07.348Z,2.10
2022-08-28T20:56:35.265Z,2.70
2022-08-28T20:59:03.219Z,2.10
2022-08-28T21:01:33.784Z,1.80
2022-08-28T21:04:02.410Z,1.93
2022-08-28T21:06:31.017Z,2.27
2022-08-28T21:08:59.783Z,2.20
2022-08-28T21:11:29.361Z,2.00
2022-08-28T21:13:57.341Z,1.93
2022-08-28T21:16:25.691Z,2.20
2022-08-28T21:19:14.565Z,1.60
2022-08-28T21:21:43.998Z,1.90
2022-08-28T21:24:21.838Z,1.73
2022-08-28T21:26:51.514Z,1.83
2022-08-28T21:29:20.959Z,1.77
2022-08-28T21:31:50.993Z,3.03
2022-08-28T21:34:22.065Z,2.33
2022-08-28T21:36:53.495Z,1.93
2022-08-28T21:39:21.838Z,2.03
2022-08-28T21:41:49.885Z,1.60
2022-08-28T21:44:18.796Z,1.80
2022-08-28T21:46:47.071Z,1.80
2022-08-28T21:49:15.004Z,1.80
2022-08-28T21:51:44.302Z,1.77
2022-08-28T21:54:12.183Z,2.13
2022-08-28T21:56:40.424Z,1.50
2022-08-28T21:59:08.411Z,2.10
2022-08-28T22:01:36.469Z,2.40
2022-08-28T22:04:05.159Z,1.70
2022-08-28T22:06:33.452Z,1.93
2022-08-28T22:09:03.545Z,2.20
2022-08-28T22:11:33.019Z,1.80
2022-08-28T22:14:01.819Z,2.00
2022-08-28T22:16:30.156Z,1.80
2022-08-28T22:18:58.683Z,1.80
2022-08-28T22:21:46.275Z,2.00
2022-08-28T22:24:15.915Z,1.90
2022-08-28T22:26:44.666Z,2.10
2022-08-28T22:29:13.373Z,1.83
2022-08-28T22:31:45.618Z,1.73
2022-08-28T22:34:14.642Z,2.00
2022-08-28T22:36:42.593Z,1.80
2022-08-28T22:39:10.495Z,1.90
2022-08-28T22:41:40.332Z,1.77
2022-08-28T22:44:08.246Z,1.80
2022-08-28T22:46:36.206Z,1.70
2022-08-28T22:49:04.182Z,1.80
2022-08-28T22:51:34.783Z,2.00
2022-08-28T22:54:02.926Z,1.93
2022-08-28T22:56:30.756Z,1.70
2022-08-28T22:59:00.196Z,1.73
2022-08-28T23:01:28.851Z,2.07
2022-08-28T23:03:57.595Z,2.80
2022-08-28T23:06:25.552Z,2.20
2022-08-28T23:08:53.472Z,2.10
2022-08-28T23:11:21.794Z,1.70
2022-08-28T23:13:49.762Z,1.63
2022-08-28T23:16:23.822Z,2.20
2022-08-28T23:19:07.763Z,1.90
2022-08-28T23:21:40.813Z,1.90
2022-08-28T23:24:12.739Z,2.10
2022-08-28T23:26:40.769Z,2.10
2022-08-28T23:29:08.773Z,2.20
2022-08-28T23:31:39.281Z,2.20
2022-08-28T23:34:07.887Z,2.13
2022-08-28T23:36:36.693Z,1.87
2022-08-28T23:39:05.364Z,1.97
2022-08-28T23:41:33.879Z,1.80
2022-08-28T23:44:07.817Z,1.77
2022-08-28T23:46:41.198Z,2.27
2022-08-28T23:49:09.696Z,2.10
2022-08-28T23:51:37.627Z,2.00
2022-08-28T23:54:06.104Z,1.80
2022-08-28T23:56:34.172Z,1.83
2022-08-28T23:59:02.451Z,1.93
